createdAt,value
2024-03-09T00:00:29.507Z,50.86
2024-03-09T00:02:59.454Z,50.90
2024-03-09T00:05:26.523Z,51.42
2024-03-09T00:07:59.401Z,51.30
2024-03-09T00:10:28.739Z,51.49
2024-03-09T00:12:57.016Z,51.54
2024-03-09T00:15:25.433Z,51.65
2024-03-09T00:17:55.466Z,51.42
2024-03-09T00:20:29.430Z,51.77
2024-03-09T00:22:59.806Z,51.34
2024-03-09T00:25:30.609Z,51.51
2024-03-09T00:27:58.499Z,51.49
2024-03-09T00:30:36.434Z,51.44
2024-03-09T00:33:08.073Z,51.51
2024-03-09T00:35:36.856Z,51.50
2024-03-09T00:38:05.855Z,51.59
2024-03-09T00:40:33.515Z,51.39
2024-03-09T00:43:07.338Z,51.48
2024-03-09T00:45:35.622Z,51.31
2024-03-09T00:48:05.035Z,51.19
2024-03-09T00:50:32.930Z,51.17
2024-03-09T00:53:00.108Z,51.39
2024-03-09T00:55:27.311Z,51.10
2024-03-09T00:57:55.548Z,51.17
2024-03-09T01:00:25.728Z,51.47
2024-03-09T01:02:53.599Z,51.31
2024-03-09T01:05:23.813Z,51.54
2024-03-09T01:07:51.912Z,51.66
2024-03-09T01:10:19.210Z,51.31
2024-03-09T01:12:46.634Z,51.69
2024-03-09T01:15:15.096Z,51.56
2024-03-09T01:17:42.425Z,51.75
2024-03-09T01:20:10.440Z,51.62
2024-03-09T01:22:38.547Z,51.47
2024-03-09T01:25:09.193Z,51.74
2024-03-09T01:27:37.130Z,51.75
2024-03-09T01:30:06.632Z,51.76
2024-03-09T01:32:34.012Z,51.70
2024-03-09T01:35:01.388Z,51.42
2024-03-09T01:37:28.460Z,51.58
2024-03-09T01:39:55.740Z,51.76
2024-03-09T01:42:23.140Z,51.79
2024-03-09T01:44:51.581Z,51.72
2024-03-09T01:47:30.659Z,51.82
2024-03-09T01:49:58.967Z,52.00
2024-03-09T01:52:34.233Z,51.79
2024-03-09T01:55:07.663Z,51.97
2024-03-09T01:57:35.315Z,51.90
2024-03-09T02:00:03.389Z,51.96
2024-03-09T02:02:31.955Z,52.21
2024-03-09T02:05:01.559Z,51.91
2024-03-09T02:07:28.678Z,51.96
2024-03-09T02:09:56.250Z,52.21
2024-03-09T02:12:24.570Z,52.34
2024-03-09T02:14:51.793Z,52.36
2024-03-09T02:17:18.773Z,52.61
2024-03-09T02:19:45.684Z,52.71
2024-03-09T02:22:15.750Z,52.51
2024-03-09T02:24:43.907Z,52.81
2024-03-09T02:27:11.696Z,53.01
2024-03-09T02:29:41.673Z,53.18
2024-03-09T02:32:09.146Z,53.13
2024-03-09T02:34:36.703Z,53.46
2024-03-09T02:37:04.586Z,53.45
2024-03-09T02:39:32.370Z,53.33
2024-03-09T02:42:00.427Z,53.45
2024-03-09T02:44:28.640Z,53.25
2024-03-09T02:46:56.171Z,53.48
2024-03-09T02:49:23.468Z,53.48
2024-03-09T02:51:50.487Z,53.42
2024-03-09T02:54:18.066Z,53.01
2024-03-09T02:56:45.021Z,52.65
2024-03-09T02:59:11.964Z,52.67
2024-03-09T03:01:39.118Z,52.70
2024-03-09T03:04:06.116Z,53.12
2024-03-09T03:06:37.426Z,52.98
2024-03-09T03:09:24.043Z,53.17
2024-03-09T03:11:53.288Z,52.92
2024-03-09T03:14:21.557Z,53.18
2024-03-09T03:16:49.061Z,53.19
2024-03-09T03:19:15.996Z,53.07
2024-03-09T03:21:42.881Z,53.18
2024-03-09T03:24:10.992Z,53.34
2024-03-09T03:26:40.162Z,53.50
2024-03-09T03:29:07.293Z,53.60
2024-03-09T03:31:34.464Z,53.46
2024-03-09T03:34:03.031Z,53.45
2024-03-09T03:36:31.237Z,53.79
2024-03-09T03:38:58.169Z,53.72
2024-03-09T03:41:25.238Z,53.56
2024-03-09T03:43:52.647Z,53.73
2024-03-09T03:46:19.860Z,53.82
2024-03-09T03:48:47.743Z,53.55
2024-03-09T03:51:16.843Z,53.58
2024-03-09T03:53:45.834Z,54.03
2024-03-09T03:56:13.763Z,53.69
2024-03-09T03:58:46.198Z,54.02
2024-03-09T04:01:13.345Z,53.73
2024-03-09T04:03:40.395Z,53.97
2024-03-09T04:06:08.824Z,53.99
2024-03-09T04:08:36.436Z,54.15
2024-03-09T04:11:07.298Z,54.18
2024-03-09T04:13:34.573Z,53.97
2024-03-09T04:16:05.116Z,53.66
2024-03-09T04:18:33.208Z,53.71
2024-03-09T04:21:03.161Z,53.81
2024-03-09T04:23:30.404Z,53.49
2024-03-09T04:25:57.601Z,53.66
2024-03-09T04:28:29.323Z,53.30
2024-03-09T04:30:59.570Z,53.39
2024-03-09T04:33:29.693Z,53.21
2024-03-09T04:35:58.527Z,53.36
2024-03-09T04:38:27.323Z,53.45
2024-03-09T04:40:54.538Z,53.59
2024-03-09T04:43:21.528Z,54.00
2024-03-09T04:45:52.134Z,54.41
2024-03-09T04:48:19.365Z,55.15
2024-03-09T04:50:49.867Z,55.83
2024-03-09T04:53:18.568Z,56.41
2024-03-09T04:55:50.682Z,56.51
2024-03-09T04:58:19.950Z,56.64
2024-03-09T05:00:47.497Z,57.12
2024-03-09T05:03:16.011Z,57.83
2024-03-09T05:05:44.679Z,58.71
2024-03-09T05:08:12.425Z,58.87
2024-03-09T05:10:39.807Z,60.06
2024-03-09T05:13:08.792Z,60.37
2024-03-09T05:15:37.233Z,60.28
2024-03-09T05:18:10.022Z,60.75
2024-03-09T05:20:37.986Z,61.45
2024-03-09T05:23:11.536Z,60.99
2024-03-09T05:25:41.854Z,61.02
2024-03-09T05:28:14.321Z,60.92
2024-03-09T05:30:43.098Z,61.15
2024-03-09T05:33:10.636Z,61.42
2024-03-09T05:35:38.007Z,61.44
2024-03-09T05:38:06.439Z,61.38
2024-03-09T05:40:36.086Z,61.57
2024-03-09T05:43:08.625Z,61.98
2024-03-09T05:45:37.790Z,62.28
2024-03-09T05:48:05.338Z,62.31
2024-03-09T05:50:33.560Z,62.01
2024-03-09T05:53:02.211Z,62.23
2024-03-09T05:55:30.214Z,62.36
2024-03-09T05:57:58.405Z,62.85
2024-03-09T06:00:31.489Z,62.47
2024-03-09T06:03:03.750Z,62.19
2024-03-09T06:05:32.477Z,62.98
2024-03-09T06:08:00.795Z,62.69
2024-03-09T06:10:29.430Z,62.71
2024-03-09T06:12:56.530Z,63.49
2024-03-09T06:15:25.111Z,63.55
2024-03-09T06:17:55.672Z,63.69
2024-03-09T06:20:28.075Z,63.37
2024-03-09T06:22:56.490Z,63.60
2024-03-09T06:25:25.358Z,64.07
2024-03-09T06:27:57.971Z,64.67
2024-03-09T06:30:29.546Z,64.10
2024-03-09T06:33:01.246Z,63.97
2024-03-09T06:35:29.847Z,63.94
2024-03-09T06:38:09.616Z,64.19
2024-03-09T06:40:42.804Z,63.79
2024-03-09T06:43:12.059Z,63.89
2024-03-09T06:45:40.935Z,64.39
2024-03-09T06:48:09.057Z,64.64
2024-03-09T06:50:38.023Z,64.45
2024-03-09T06:53:05.548Z,64.50
2024-03-09T06:55:33.001Z,64.32
2024-03-09T06:58:04.205Z,64.01
2024-03-09T07:00:36.641Z,63.68
2024-03-09T07:03:06.613Z,63.72
2024-03-09T07:05:38.672Z,62.99
2024-03-09T07:08:08.381Z,62.23
2024-03-09T07:10:37.486Z,62.24
2024-03-09T07:13:06.046Z,62.16
2024-03-09T07:15:33.080Z,63.03
2024-03-09T07:18:00.941Z,62.71
2024-03-09T07:20:29.930Z,62.94
2024-03-09T07:22:57.843Z,62.95
2024-03-09T07:25:28.109Z,63.48
2024-03-09T07:27:57.802Z,64.16
2024-03-09T07:30:26.028Z,64.13
2024-03-09T07:32:55.875Z,64.33
2024-03-09T07:35:29.818Z,65.28
2024-03-09T07:38:00.873Z,66.70
2024-03-09T07:40:38.242Z,66.99
2024-03-09T07:43:07.083Z,67.59
2024-03-09T07:45:35.125Z,68.28
2024-03-09T07:48:04.864Z,69.45
2024-03-09T07:50:34.231Z,70.43
2024-03-09T07:53:02.063Z,70.89
2024-03-09T07:55:30.190Z,71.21
2024-03-09T07:58:09.741Z,70.84
2024-03-09T08:00:46.057Z,71.73
2024-03-09T08:03:14.545Z,72.02
2024-03-09T08:05:42.891Z,72.11
2024-03-09T08:08:14.423Z,72.32
2024-03-09T08:10:49.441Z,74.19
2024-03-09T08:13:18.790Z,74.67
2024-03-09T08:15:46.861Z,75.52
2024-03-09T08:18:14.103Z,76.51
2024-03-09T08:20:41.238Z,76.72
2024-03-09T08:23:08.519Z,77.24
2024-03-09T08:25:37.455Z,78.24
2024-03-09T08:28:05.292Z,79.14
2024-03-09T08:30:32.838Z,79.86
2024-03-09T08:33:00.568Z,80.28
2024-03-09T08:35:33.167Z,79.80
2024-03-09T08:38:00.748Z,79.71
2024-03-09T08:40:28.000Z,79.96
2024-03-09T08:42:56.267Z,80.25
2024-03-09T08:45:25.670Z,80.72
2024-03-09T08:47:53.972Z,81.72
2024-03-09T08:50:23.165Z,82.86
2024-03-09T08:52:51.075Z,82.93
2024-03-09T08:55:20.202Z,82.86
2024-03-09T08:57:50.752Z,82.78
2024-03-09T09:00:26.555Z,82.90
2024-03-09T09:02:58.464Z,82.83
2024-03-09T09:05:28.883Z,82.91
2024-03-09T09:07:57.179Z,82.36
2024-03-09T09:10:26.891Z,82.68
2024-03-09T09:12:55.666Z,82.55
2024-03-09T09:15:25.840Z,81.66
2024-03-09T09:17:53.228Z,81.33
2024-03-09T09:20:21.264Z,80.92
2024-03-09T09:22:49.231Z,79.93
2024-03-09T09:25:18.375Z,80.09
2024-03-09T09:27:45.862Z,79.43
2024-03-09T09:30:13.701Z,79.61
2024-03-09T09:32:45.094Z,79.90
2024-03-09T09:35:13.901Z,79.63
2024-03-09T09:37:41.324Z,79.52
2024-03-09T09:40:10.361Z,78.92
2024-03-09T09:42:37.495Z,78.47
2024-03-09T09:45:06.063Z,78.53
2024-03-09T09:47:34.577Z,78.78
2024-03-09T09:50:02.547Z,78.83
2024-03-09T09:52:31.894Z,78.41
2024-03-09T09:55:03.718Z,78.60
2024-03-09T09:57:32.543Z,79.21
2024-03-09T09:59:59.743Z,78.87
2024-03-09T10:02:26.864Z,78.45
2024-03-09T10:04:55.600Z,77.56
2024-03-09T10:07:23.217Z,77.11
2024-03-09T10:09:50.913Z,76.77
2024-03-09T10:12:24.669Z,76.47
2024-03-09T10:14:53.137Z,76.11
2024-03-09T10:17:23.933Z,76.05
2024-03-09T10:19:51.507Z,75.93
2024-03-09T10:22:18.776Z,75.58
2024-03-09T10:24:54.302Z,75.67
2024-03-09T10:27:22.705Z,74.64
2024-03-09T10:29:49.846Z,75.08
2024-03-09T10:32:19.427Z,74.58
2024-03-09T10:34:46.873Z,74.60
2024-03-09T10:37:19.349Z,74.88
2024-03-09T10:39:46.626Z,74.60
2024-03-09T10:42:18.177Z,74.57
2024-03-09T10:44:45.765Z,74.38
2024-03-09T10:47:16.010Z,74.69
2024-03-09T10:49:46.884Z,74.96
2024-03-09T10:52:17.880Z,75.05
2024-03-09T10:55:03.068Z,75.36
2024-03-09T10:57:30.973Z,75.52
2024-03-09T10:59:59.148Z,75.25
2024-03-09T11:02:26.694Z,75.18
2024-03-09T11:04:57.072Z,74.99
2024-03-09T11:07:24.611Z,75.29
2024-03-09T11:09:53.548Z,75.47
2024-03-09T11:12:22.154Z,75.34
2024-03-09T11:14:51.615Z,75.98
2024-03-09T11:17:25.574Z,75.46
2024-03-09T11:20:01.241Z,75.56
2024-03-09T11:22:47.262Z,76.73
2024-03-09T11:25:44.741Z,76.99
2024-03-09T11:28:12.526Z,76.33
2024-03-09T11:30:58.550Z,76.70
2024-03-09T11:33:29.567Z,76.49
2024-03-09T11:35:58.379Z,76.76
2024-03-09T11:38:29.229Z,76.61
2024-03-09T11:40:56.241Z,77.05
2024-03-09T11:43:23.284Z,76.73
2024-03-09T11:45:50.386Z,76.66
2024-03-09T11:48:18.004Z,76.31
2024-03-09T11:50:45.045Z,76.54
2024-03-09T11:53:12.507Z,76.18
2024-03-09T11:55:39.667Z,76.38
2024-03-09T11:58:10.499Z,76.53
2024-03-09T12:00:37.483Z,76.74
2024-03-09T12:03:22.405Z,76.74
2024-03-09T12:05:49.255Z,77.20
2024-03-09T12:08:16.567Z,76.70
2024-03-09T12:10:44.124Z,76.90
2024-03-09T12:13:11.214Z,77.08
2024-03-09T12:15:42.345Z,77.12
2024-03-09T12:18:13.346Z,77.02
2024-03-09T12:20:42.243Z,77.42
2024-03-09T12:23:12.431Z,77.14
2024-03-09T12:25:45.928Z,77.59
2024-03-09T12:28:17.232Z,78.20
2024-03-09T12:30:52.011Z,78.08
2024-03-09T12:33:19.100Z,78.70
2024-03-09T12:35:47.351Z,78.32
2024-03-09T12:38:16.145Z,78.07
2024-03-09T12:40:46.572Z,78.37
2024-03-09T12:43:15.310Z,78.10
2024-03-09T12:45:43.011Z,77.97
2024-03-09T12:48:10.329Z,78.36
2024-03-09T12:50:37.584Z,78.01
2024-03-09T12:53:05.926Z,78.24
2024-03-09T12:55:34.768Z,78.13
2024-03-09T12:58:01.917Z,78.26
2024-03-09T13:00:33.665Z,77.99
2024-03-09T13:03:02.553Z,78.32
2024-03-09T13:05:29.746Z,78.87
2024-03-09T13:07:58.218Z,79.14
2024-03-09T13:10:25.931Z,79.22
2024-03-09T13:12:53.448Z,78.98
2024-03-09T13:15:21.875Z,79.19
2024-03-09T13:17:52.497Z,79.23
2024-03-09T13:20:21.555Z,79.78
2024-03-09T13:22:49.123Z,79.97
2024-03-09T13:25:17.583Z,79.66
2024-03-09T13:27:44.595Z,79.39
2024-03-09T13:30:27.100Z,79.52
2024-03-09T13:32:56.570Z,79.67
2024-03-09T13:35:24.254Z,79.62
2024-03-09T13:37:51.422Z,79.47
2024-03-09T13:40:26.799Z,79.29
2024-03-09T13:42:58.111Z,79.47
2024-03-09T13:45:26.775Z,79.31
2024-03-09T13:48:07.168Z,79.77
2024-03-09T13:50:35.984Z,79.72
2024-03-09T13:53:07.531Z,79.81
2024-03-09T13:55:35.780Z,79.47
2024-03-09T13:58:03.939Z,79.20
2024-03-09T14:00:31.207Z,79.64
2024-03-09T14:03:00.487Z,79.24
2024-03-09T14:05:28.261Z,79.63
2024-03-09T14:07:59.696Z,79.22
2024-03-09T14:10:39.620Z,79.80
2024-03-09T14:13:10.251Z,79.61
2024-03-09T14:15:39.061Z,79.56
2024-03-09T14:18:12.937Z,79.09
2024-03-09T14:20:40.441Z,78.97
2024-03-09T14:23:08.037Z,79.71
2024-03-09T14:25:35.349Z,79.50
2024-03-09T14:28:07.350Z,80.38
2024-03-09T14:30:35.716Z,80.22
2024-03-09T14:33:02.933Z,80.28
2024-03-09T14:35:33.859Z,79.84
2024-03-09T14:38:02.497Z,79.47
2024-03-09T14:40:35.775Z,79.33
2024-03-09T14:43:04.979Z,76.82
2024-03-09T14:45:37.068Z,75.44
2024-03-09T14:48:11.683Z,74.51
2024-03-09T14:50:38.495Z,74.47
2024-03-09T14:53:19.160Z,74.69
2024-03-09T14:55:47.116Z,74.68
2024-03-09T14:58:14.352Z,74.90
2024-03-09T15:00:44.492Z,75.06
2024-03-09T15:03:16.247Z,75.01
2024-03-09T15:05:43.376Z,74.81
2024-03-09T15:08:13.183Z,74.84
2024-03-09T15:10:41.148Z,74.86
2024-03-09T15:13:08.138Z,75.14
2024-03-09T15:15:41.945Z,74.88
2024-03-09T15:18:12.216Z,74.85
2024-03-09T15:20:43.001Z,73.85
2024-03-09T15:23:12.904Z,73.58
2024-03-09T15:25:43.563Z,73.53
2024-03-09T15:28:18.049Z,73.80
2024-03-09T15:30:54.047Z,73.88
2024-03-09T15:33:25.085Z,73.69
2024-03-09T15:35:53.168Z,73.59
2024-03-09T15:38:22.740Z,73.71
2024-03-09T15:40:50.772Z,73.78
2024-03-09T15:43:17.772Z,72.98
2024-03-09T15:45:44.902Z,73.69
2024-03-09T15:48:11.973Z,73.88
2024-03-09T15:50:41.552Z,74.16
2024-03-09T15:53:09.302Z,74.79
2024-03-09T15:55:36.734Z,73.66
2024-03-09T15:58:10.274Z,74.12
2024-03-09T16:00:38.188Z,73.96
2024-03-09T16:03:05.474Z,74.25
2024-03-09T16:05:33.020Z,74.28
2024-03-09T16:08:03.392Z,74.71
2024-03-09T16:10:34.138Z,74.60
2024-03-09T16:13:02.438Z,74.79
2024-03-09T16:15:32.861Z,74.69
2024-03-09T16:18:02.463Z,74.75
2024-03-09T16:20:31.882Z,74.44
2024-03-09T16:23:03.391Z,74.63
2024-03-09T16:25:33.955Z,74.33
2024-03-09T16:28:12.521Z,74.43
2024-03-09T16:30:44.668Z,73.26
2024-03-09T16:33:15.531Z,72.61
2024-03-09T16:35:49.685Z,70.76
2024-03-09T16:38:24.415Z,69.55
2024-03-09T16:40:56.863Z,69.11
2024-03-09T16:43:34.562Z,69.59
2024-03-09T16:46:07.308Z,69.44
2024-03-09T16:48:38.540Z,69.65
2024-03-09T16:51:10.034Z,69.62
2024-03-09T16:53:41.276Z,69.65
2024-03-09T16:56:11.015Z,68.61
2024-03-09T16:58:40.758Z,68.41
2024-03-09T17:01:08.917Z,68.06
2024-03-09T17:03:36.602Z,67.08
2024-03-09T17:06:04.378Z,67.34
2024-03-09T17:08:31.843Z,68.38
2024-03-09T17:10:59.562Z,69.62
2024-03-09T17:13:27.205Z,69.54
2024-03-09T17:15:54.213Z,68.42
2024-03-09T17:18:22.663Z,68.19
2024-03-09T17:20:54.102Z,67.68
2024-03-09T17:23:22.859Z,66.76
2024-03-09T17:25:51.076Z,67.08
2024-03-09T17:28:22.473Z,67.47
2024-03-09T17:30:50.740Z,67.77
2024-03-09T17:33:19.014Z,67.81
2024-03-09T17:35:46.916Z,67.21
2024-03-09T17:38:14.044Z,67.20
2024-03-09T17:40:48.546Z,67.44
2024-03-09T17:43:16.756Z,66.89
2024-03-09T17:45:46.464Z,67.27
2024-03-09T17:48:14.908Z,67.06
2024-03-09T17:50:43.541Z,66.85
2024-03-09T17:53:11.354Z,67.14
2024-03-09T17:55:39.171Z,67.37
2024-03-09T17:58:10.327Z,67.57
2024-03-09T18:00:40.076Z,67.73
2024-03-09T18:03:11.205Z,68.06
2024-03-09T18:05:38.929Z,68.59
2024-03-09T18:08:11.214Z,68.80
2024-03-09T18:10:43.197Z,69.17
2024-03-09T18:13:13.063Z,69.76
2024-03-09T18:15:46.922Z,70.01
2024-03-09T18:18:15.317Z,70.13
2024-03-09T18:20:44.602Z,70.27
2024-03-09T18:23:13.257Z,70.70
2024-03-09T18:25:53.129Z,70.50
2024-03-09T18:28:20.363Z,70.74
2024-03-09T18:30:47.514Z,70.52
2024-03-09T18:33:15.136Z,70.76
2024-03-09T18:35:43.343Z,70.41
2024-03-09T18:38:15.435Z,70.27
2024-03-09T18:40:42.832Z,70.53
2024-03-09T18:43:10.354Z,70.61
2024-03-09T18:45:37.638Z,70.24
2024-03-09T18:48:05.158Z,70.18
2024-03-09T18:50:32.427Z,69.99
2024-03-09T18:52:59.748Z,70.19
2024-03-09T18:55:29.179Z,70.53
2024-03-09T18:57:56.558Z,71.06
2024-03-09T19:00:31.573Z,69.78
2024-03-09T19:03:00.357Z,70.84
2024-03-09T19:05:28.421Z,70.02
2024-03-09T19:07:57.228Z,70.60
2024-03-09T19:10:25.049Z,71.50
2024-03-09T19:12:52.933Z,71.24
2024-03-09T19:15:24.332Z,71.59
2024-03-09T19:17:52.444Z,71.96
2024-03-09T19:20:25.881Z,72.05
2024-03-09T19:22:54.472Z,71.40
2024-03-09T19:25:22.049Z,70.69
2024-03-09T19:27:49.616Z,69.99
2024-03-09T19:30:19.049Z,71.09
2024-03-09T19:32:47.741Z,71.21
2024-03-09T19:35:23.287Z,70.49
2024-03-09T19:37:51.156Z,70.01
2024-03-09T19:40:19.052Z,69.89
2024-03-09T19:42:47.792Z,70.29
2024-03-09T19:45:19.054Z,70.11
2024-03-09T19:47:50.317Z,69.70
2024-03-09T19:50:18.090Z,69.48
2024-03-09T19:52:48.399Z,69.61
2024-03-09T19:55:16.876Z,70.10
2024-03-09T19:57:44.571Z,70.13
2024-03-09T20:00:17.699Z,70.06
2024-03-09T20:02:45.598Z,69.42
2024-03-09T20:05:13.029Z,69.59
2024-03-09T20:07:42.181Z,69.88
2024-03-09T20:10:16.485Z,70.34
2024-03-09T20:12:50.022Z,70.42
2024-03-09T20:15:19.057Z,70.43
2024-03-09T20:17:51.939Z,70.07
2024-03-09T20:20:20.133Z,70.17
2024-03-09T20:22:48.519Z,69.78
2024-03-09T20:25:18.276Z,70.08
2024-03-09T20:27:45.468Z,69.22
2024-03-09T20:30:14.450Z,69.32
2024-03-09T20:32:42.290Z,69.01
2024-03-09T20:35:12.368Z,68.88
2024-03-09T20:37:39.691Z,68.71
2024-03-09T20:40:14.520Z,68.84
2024-03-09T20:42:44.765Z,68.59
2024-03-09T20:45:13.536Z,68.87
2024-03-09T20:47:40.473Z,69.01
2024-03-09T20:50:12.392Z,69.27
2024-03-09T20:52:39.766Z,69.89
2024-03-09T20:55:08.913Z,70.43
2024-03-09T20:57:36.977Z,70.81
2024-03-09T21:00:11.507Z,70.49
2024-03-09T21:02:40.829Z,69.93
2024-03-09T21:05:09.170Z,69.19
2024-03-09T21:07:36.261Z,68.95
2024-03-09T21:10:04.329Z,68.46
2024-03-09T21:12:31.376Z,68.20
2024-03-09T21:14:59.642Z,68.51
2024-03-09T21:17:27.345Z,68.84
2024-03-09T21:19:54.983Z,68.76
2024-03-09T21:22:22.693Z,68.89
2024-03-09T21:24:49.676Z,68.71
2024-03-09T21:27:17.305Z,69.01
2024-03-09T21:29:44.434Z,69.04
2024-03-09T21:32:12.094Z,69.39
2024-03-09T21:34:39.271Z,69.55
2024-03-09T21:37:06.284Z,69.80
2024-03-09T21:39:36.894Z,70.04
2024-03-09T21:42:07.333Z,70.08
2024-03-09T21:44:34.336Z,69.78
2024-03-09T21:47:01.442Z,70.20
2024-03-09T21:49:28.446Z,70.20
2024-03-09T21:51:55.521Z,69.98
2024-03-09T21:54:23.157Z,69.97
2024-03-09T21:56:50.051Z,69.87
2024-03-09T21:59:17.151Z,69.84
2024-03-09T22:01:44.927Z,70.36
2024-03-09T22:04:12.062Z,70.26
2024-03-09T22:06:39.060Z,70.39
2024-03-09T22:09:09.422Z,70.27
2024-03-09T22:11:48.585Z,70.18
2024-03-09T22:14:15.913Z,70.11
2024-03-09T22:16:42.906Z,69.85
2024-03-09T22:19:09.841Z,70.08
2024-03-09T22:21:36.971Z,69.99
2024-03-09T22:24:04.314Z,70.21
2024-03-09T22:26:31.478Z,70.14
2024-03-09T22:28:59.405Z,69.94
2024-03-09T22:31:26.940Z,70.25
2024-03-09T22:33:54.874Z,70.05
2024-03-09T22:36:22.287Z,70.14
2024-03-09T22:38:49.554Z,70.49
2024-03-09T22:41:17.045Z,70.72
2024-03-09T22:43:44.116Z,70.57
2024-03-09T22:46:12.447Z,70.62
2024-03-09T22:48:39.557Z,70.88
2024-03-09T22:51:07.751Z,70.50
2024-03-09T22:53:35.652Z,70.58
2024-03-09T22:56:04.428Z,70.48
2024-03-09T22:58:32.262Z,70.59
2024-03-09T23:01:19.604Z,70.29
2024-03-09T23:03:46.682Z,70.95
2024-03-09T23:06:15.775Z,70.76
2024-03-09T23:08:43.118Z,70.83
2024-03-09T23:11:10.405Z,70.60
2024-03-09T23:13:37.480Z,70.62
2024-03-09T23:16:04.801Z,70.79
2024-03-09T23:18:35.296Z,70.90
2024-03-09T23:21:02.854Z,70.64
2024-03-09T23:23:31.321Z,70.61
2024-03-09T23:25:59.462Z,70.58
2024-03-09T23:28:26.993Z,70.73
2024-03-09T23:30:54.016Z,70.73
2024-03-09T23:33:21.066Z,70.87
2024-03-09T23:35:48.003Z,70.95
2024-03-09T23:38:15.015Z,71.01
2024-03-09T23:40:42.009Z,71.04
2024-03-09T23:43:11.395Z,71.05
2024-03-09T23:45:39.868Z,71.39
2024-03-09T23:48:07.381Z,71.15
2024-03-09T23:50:34.481Z,70.89
2024-03-09T23:53:01.795Z,70.76
2024-03-09T23:55:29.949Z,70.55
2024-03-09T23:57:56.930Z,70.46
